sensor_id;sensor_type;location;lat;lon;timestamp;P1;durP1;ratioP1;P2;durP2;ratioP2
42104;SDS011;61464;51.472;5.712;2022-09-03T00:08:50;5.65;;;2.67;;
42104;SDS011;61464;51.472;5.712;2022-09-03T00:11:25;8.60;;;2.90;;
42104;SDS011;61464;51.472;5.712;2022-09-03T00:14:04;7.28;;;2.92;;
42104;SDS011;61464;51.472;5.712;2022-09-03T00:16:51;6.47;;;2.67;;
42104;SDS011;61464;51.472;5.712;2022-09-03T00:19:55;7.72;;;2.50;;
42104;SDS011;61464;51.472;5.712;2022-09-03T00:22:36;4.00;;;2.90;;
42104;SDS011;61464;51.472;5.712;2022-09-03T00:28:23;5.78;;;2.80;;
42104;SDS011;61464;51.472;5.712;2022-09-03T00:31:10;6.75;;;3.05;;
42104;SDS011;61464;51.472;5.712;2022-09-03T00:34:05;9.35;;;2.67;;
42104;SDS011;61464;51.472;5.712;2022-09-03T00:36:47;5.57;;;2.63;;
42104;SDS011;61464;51.472;5.712;2022-09-03T00:39:17;6.95;;;2.75;;
42104;SDS011;61464;51.472;5.712;2022-09-03T00:47:44;6.88;;;3.05;;
42104;SDS011;61464;51.472;5.712;2022-09-03T00:53:19;4.25;;;2.38;;
42104;SDS011;61464;51.472;5.712;2022-09-03T00:56:13;5.72;;;2.95;;
42104;SDS011;61464;51.472;5.712;2022-09-03T01:02:30;3.60;;;2.22;;
42104;SDS011;61464;51.472;5.712;2022-09-03T01:07:37;3.30;;;2.40;;
42104;SDS011;61464;51.472;5.712;2022-09-03T01:10:23;6.82;;;2.50;;
42104;SDS011;61464;51.472;5.712;2022-09-03T01:21:48;4.88;;;2.40;;
42104;SDS011;61464;51.472;5.712;2022-09-03T01:30:43;8.60;;;2.20;;
42104;SDS011;61464;51.472;5.712;2022-09-03T01:38:58;5.07;;;2.30;;
42104;SDS011;61464;51.472;5.712;2022-09-03T01:44:32;3.38;;;2.10;;
42104;SDS011;61464;51.472;5.712;2022-09-03T01:50:32;4.88;;;2.28;;
42104;SDS011;61464;51.472;5.712;2022-09-03T02:01:49;5.13;;;2.63;;
42104;SDS011;61464;51.472;5.712;2022-09-03T02:04:26;4.03;;;2.20;;
42104;SDS011;61464;51.472;5.712;2022-09-03T02:06:53;4.78;;;2.38;;
42104;SDS011;61464;51.472;5.712;2022-09-03T02:09:22;3.15;;;2.22;;
42104;SDS011;61464;51.472;5.712;2022-09-03T02:11:53;3.78;;;2.50;;
42104;SDS011;61464;51.472;5.712;2022-09-03T02:14:31;7.18;;;2.55;;
42104;SDS011;61464;51.472;5.712;2022-09-03T02:16:58;4.60;;;2.70;;
42104;SDS011;61464;51.472;5.712;2022-09-03T02:19:26;6.15;;;2.55;;
42104;SDS011;61464;51.472;5.712;2022-09-03T02:21:54;7.82;;;2.72;;
42104;SDS011;61464;51.472;5.712;2022-09-03T02:24:21;5.85;;;2.40;;
42104;SDS011;61464;51.472;5.712;2022-09-03T02:26:49;6.78;;;2.78;;
42104;SDS011;61464;51.472;5.712;2022-09-03T02:29:15;5.72;;;2.40;;
42104;SDS011;61464;51.472;5.712;2022-09-03T02:31:42;5.80;;;2.50;;
42104;SDS011;61464;51.472;5.712;2022-09-03T02:34:09;5.72;;;2.42;;
42104;SDS011;61464;51.472;5.712;2022-09-03T02:36:36;6.47;;;2.72;;
42104;SDS011;61464;51.472;5.712;2022-09-03T02:39:09;5.40;;;2.60;;
42104;SDS011;61464;51.472;5.712;2022-09-03T02:41:37;4.55;;;2.50;;
42104;SDS011;61464;51.472;5.712;2022-09-03T02:46:45;2.85;;;2.15;;
42104;SDS011;61464;51.472;5.712;2022-09-03T02:49:17;5.00;;;2.60;;
42104;SDS011;61464;51.472;5.712;2022-09-03T02:51:43;6.28;;;2.92;;
42104;SDS011;61464;51.472;5.712;2022-09-03T02:54:10;4.10;;;2.20;;
42104;SDS011;61464;51.472;5.712;2022-09-03T02:56:37;4.05;;;2.30;;
42104;SDS011;61464;51.472;5.712;2022-09-03T02:59:03;3.72;;;2.17;;
42104;SDS011;61464;51.472;5.712;2022-09-03T03:01:31;4.65;;;2.20;;
42104;SDS011;61464;51.472;5.712;2022-09-03T03:03:57;3.78;;;2.33;;
42104;SDS011;61464;51.472;5.712;2022-09-03T03:06:23;6.15;;;2.40;;
42104;SDS011;61464;51.472;5.712;2022-09-03T03:08:49;4.88;;;2.30;;
42104;SDS011;61464;51.472;5.712;2022-09-03T03:11:16;2.78;;;2.20;;
42104;SDS011;61464;51.472;5.712;2022-09-03T03:13:44;5.57;;;2.50;;
42104;SDS011;61464;51.472;5.712;2022-09-03T03:16:11;7.03;;;2.30;;
42104;SDS011;61464;51.472;5.712;2022-09-03T03:18:39;4.28;;;2.22;;
42104;SDS011;61464;51.472;5.712;2022-09-03T03:21:06;3.83;;;1.90;;
42104;SDS011;61464;51.472;5.712;2022-09-03T03:23:35;4.50;;;2.10;;
42104;SDS011;61464;51.472;5.712;2022-09-03T03:26:03;3.65;;;2.20;;
42104;SDS011;61464;51.472;5.712;2022-09-03T03:28:33;14.68;;;2.50;;
42104;SDS011;61464;51.472;5.712;2022-09-03T03:33:40;4.22;;;1.95;;
42104;SDS011;61464;51.472;5.712;2022-09-03T03:36:11;4.28;;;2.20;;
42104;SDS011;61464;51.472;5.712;2022-09-03T03:38:40;4.40;;;2.10;;
42104;SDS011;61464;51.472;5.712;2022-09-03T03:43:35;4.88;;;2.10;;
42104;SDS011;61464;51.472;5.712;2022-09-03T03:46:01;3.72;;;1.75;;
42104;SDS011;61464;51.472;5.712;2022-09-03T03:48:27;6.85;;;2.03;;
42104;SDS011;61464;51.472;5.712;2022-09-03T03:50:53;3.83;;;1.80;;
42104;SDS011;61464;51.472;5.712;2022-09-03T03:53:18;3.17;;;2.13;;
42104;SDS011;61464;51.472;5.712;2022-09-03T03:55:57;2.83;;;2.00;;
42104;SDS011;61464;51.472;5.712;2022-09-03T03:58:26;2.63;;;1.67;;
42104;SDS011;61464;51.472;5.712;2022-09-03T04:00:55;4.10;;;1.77;;
42104;SDS011;61464;51.472;5.712;2022-09-03T04:03:35;7.90;;;1.92;;
42104;SDS011;61464;51.472;5.712;2022-09-03T04:06:02;4.20;;;1.75;;
42104;SDS011;61464;51.472;5.712;2022-09-03T04:08:29;4.10;;;2.05;;
42104;SDS011;61464;51.472;5.712;2022-09-03T04:10:58;3.15;;;1.80;;
42104;SDS011;61464;51.472;5.712;2022-09-03T04:13:29;3.35;;;2.10;;
42104;SDS011;61464;51.472;5.712;2022-09-03T04:16:04;3.67;;;1.73;;
42104;SDS011;61464;51.472;5.712;2022-09-03T04:18:33;2.88;;;1.75;;
42104;SDS011;61464;51.472;5.712;2022-09-03T04:21:04;3.78;;;1.85;;
42104;SDS011;61464;51.472;5.712;2022-09-03T04:23:36;5.43;;;1.90;;
42104;SDS011;61464;51.472;5.712;2022-09-03T04:26:05;7.55;;;2.17;;
42104;SDS011;61464;51.472;5.712;2022-09-03T04:28:32;3.63;;;2.10;;
42104;SDS011;61464;51.472;5.712;2022-09-03T04:30:59;3.10;;;2.00;;
42104;SDS011;61464;51.472;5.712;2022-09-03T04:33:31;2.95;;;2.08;;
42104;SDS011;61464;51.472;5.712;2022-09-03T04:36:31;4.45;;;2.13;;
42104;SDS011;61464;51.472;5.712;2022-09-03T04:38:52;3.63;;;2.00;;
42104;SDS011;61464;51.472;5.712;2022-09-03T04:41:21;3.10;;;2.08;;
42104;SDS011;61464;51.472;5.712;2022-09-03T04:43:49;3.83;;;2.10;;
42104;SDS011;61464;51.472;5.712;2022-09-03T04:46:20;4.82;;;2.30;;
42104;SDS011;61464;51.472;5.712;2022-09-03T04:48:50;7.57;;;2.30;;
42104;SDS011;61464;51.472;5.712;2022-09-03T04:51:19;3.38;;;1.88;;
42104;SDS011;61464;51.472;5.712;2022-09-03T04:53:51;9.05;;;2.33;;
42104;SDS011;61464;51.472;5.712;2022-09-03T04:56:21;5.55;;;2.08;;
42104;SDS011;61464;51.472;5.712;2022-09-03T04:58:58;8.05;;;1.92;;
42104;SDS011;61464;51.472;5.712;2022-09-03T05:01:27;6.32;;;1.80;;
42104;SDS011;61464;51.472;5.712;2022-09-03T05:03:55;5.70;;;1.90;;
42104;SDS011;61464;51.472;5.712;2022-09-03T05:06:22;6.63;;;2.13;;
42104;SDS011;61464;51.472;5.712;2022-09-03T05:08:53;3.40;;;2.10;;
42104;SDS011;61464;51.472;5.712;2022-09-03T05:11:20;2.50;;;1.95;;
42104;SDS011;61464;51.472;5.712;2022-09-03T05:13:50;4.60;;;2.15;;
42104;SDS011;61464;51.472;5.712;2022-09-03T05:16:19;5.45;;;2.20;;
42104;SDS011;61464;51.472;5.712;2022-09-03T05:18:46;3.35;;;1.75;;
42104;SDS011;61464;51.472;5.712;2022-09-03T05:21:16;3.72;;;2.00;;
42104;SDS011;61464;51.472;5.712;2022-09-03T05:23:44;3.83;;;2.08;;
42104;SDS011;61464;51.472;5.712;2022-09-03T05:26:13;5.40;;;2.13;;
42104;SDS011;61464;51.472;5.712;2022-09-03T05:28:45;5.05;;;1.98;;
42104;SDS011;61464;51.472;5.712;2022-09-03T05:31:12;12.10;;;2.03;;
42104;SDS011;61464;51.472;5.712;2022-09-03T05:33:42;4.57;;;1.92;;
42104;SDS011;61464;51.472;5.712;2022-09-03T05:36:12;4.60;;;1.98;;
42104;SDS011;61464;51.472;5.712;2022-09-03T05:38:41;6.93;;;1.98;;
42104;SDS011;61464;51.472;5.712;2022-09-03T05:41:08;4.43;;;2.17;;
42104;SDS011;61464;51.472;5.712;2022-09-03T05:43:37;2.45;;;1.77;;
42104;SDS011;61464;51.472;5.712;2022-09-03T05:46:05;5.72;;;2.30;;
42104;SDS011;61464;51.472;5.712;2022-09-03T05:48:40;3.72;;;2.10;;
42104;SDS011;61464;51.472;5.712;2022-09-03T05:53:40;6.95;;;2.33;;
42104;SDS011;61464;51.472;5.712;2022-09-03T05:56:09;5.43;;;2.13;;
42104;SDS011;61464;51.472;5.712;2022-09-03T05:58:40;5.20;;;2.30;;
42104;SDS011;61464;51.472;5.712;2022-09-03T06:03:53;7.93;;;2.58;;
42104;SDS011;61464;51.472;5.712;2022-09-03T06:06:28;8.00;;;2.97;;
42104;SDS011;61464;51.472;5.712;2022-09-03T06:08:57;10.13;;;2.97;;
42104;SDS011;61464;51.472;5.712;2022-09-03T06:11:26;6.43;;;3.30;;
42104;SDS011;61464;51.472;5.712;2022-09-03T06:13:57;10.80;;;4.38;;
42104;SDS011;61464;51.472;5.712;2022-09-03T06:16:30;12.45;;;4.22;;
42104;SDS011;61464;51.472;5.712;2022-09-03T06:18:57;9.57;;;3.88;;
42104;SDS011;61464;51.472;5.712;2022-09-03T06:21:24;12.32;;;5.65;;
42104;SDS011;61464;51.472;5.712;2022-09-03T06:23:51;19.38;;;6.35;;
42104;SDS011;61464;51.472;5.712;2022-09-03T06:26:22;20.98;;;7.30;;
42104;SDS011;61464;51.472;5.712;2022-09-03T06:28:48;21.25;;;7.13;;
42104;SDS011;61464;51.472;5.712;2022-09-03T06:31:15;26.02;;;7.63;;
42104;SDS011;61464;51.472;5.712;2022-09-03T06:33:43;23.45;;;8.00;;
42104;SDS011;61464;51.472;5.712;2022-09-03T06:36:15;24.02;;;9.15;;
42104;SDS011;61464;51.472;5.712;2022-09-03T06:38:42;27.13;;;8.63;;
42104;SDS011;61464;51.472;5.712;2022-09-03T06:41:11;25.73;;;9.88;;
42104;SDS011;61464;51.472;5.712;2022-09-03T06:43:49;27.15;;;7.95;;
42104;SDS011;61464;51.472;5.712;2022-09-03T06:46:26;27.88;;;8.43;;
42104;SDS011;61464;51.472;5.712;2022-09-03T06:48:52;27.58;;;10.75;;
42104;SDS011;61464;51.472;5.712;2022-09-03T06:51:20;29.90;;;10.85;;
42104;SDS011;61464;51.472;5.712;2022-09-03T06:53:49;30.77;;;10.38;;
42104;SDS011;61464;51.472;5.712;2022-09-03T06:56:19;28.38;;;11.93;;
42104;SDS011;61464;51.472;5.712;2022-09-03T06:58:51;30.25;;;12.27;;
42104;SDS011;61464;51.472;5.712;2022-09-03T07:01:20;32.15;;;12.70;;
42104;SDS011;61464;51.472;5.712;2022-09-03T07:03:59;32.20;;;12.05;;
42104;SDS011;61464;51.472;5.712;2022-09-03T07:06:32;40.90;;;13.77;;
42104;SDS011;61464;51.472;5.712;2022-09-03T07:09:06;38.67;;;11.98;;
42104;SDS011;61464;51.472;5.712;2022-09-03T07:11:35;30.25;;;11.98;;
42104;SDS011;61464;51.472;5.712;2022-09-03T07:14:02;35.42;;;12.10;;
42104;SDS011;61464;51.472;5.712;2022-09-03T07:16:33;32.67;;;12.80;;
42104;SDS011;61464;51.472;5.712;2022-09-03T07:19:00;32.30;;;13.45;;
42104;SDS011;61464;51.472;5.712;2022-09-03T07:21:29;31.15;;;12.23;;
42104;SDS011;61464;51.472;5.712;2022-09-03T07:23:59;34.30;;;12.20;;
42104;SDS011;61464;51.472;5.712;2022-09-03T07:26:27;29.33;;;10.05;;
42104;SDS011;61464;51.472;5.712;2022-09-03T07:28:56;24.80;;;9.68;;
42104;SDS011;61464;51.472;5.712;2022-09-03T07:31:28;24.80;;;9.40;;
42104;SDS011;61464;51.472;5.712;2022-09-03T07:33:59;16.17;;;6.07;;
42104;SDS011;61464;51.472;5.712;2022-09-03T07:36:30;11.93;;;4.60;;
42104;SDS011;61464;51.472;5.712;2022-09-03T07:39:03;11.38;;;4.05;;
42104;SDS011;61464;51.472;5.712;2022-09-03T07:41:29;6.82;;;3.17;;
42104;SDS011;61464;51.472;5.712;2022-09-03T07:43:57;9.45;;;2.95;;
42104;SDS011;61464;51.472;5.712;2022-09-03T07:46:29;5.25;;;2.10;;
42104;SDS011;61464;51.472;5.712;2022-09-03T07:48:58;5.05;;;2.47;;
42104;SDS011;61464;51.472;5.712;2022-09-03T07:51:30;8.82;;;3.20;;
42104;SDS011;61464;51.472;5.712;2022-09-03T07:54:00;9.18;;;3.70;;
42104;SDS011;61464;51.472;5.712;2022-09-03T07:56:31;7.22;;;2.97;;
42104;SDS011;61464;51.472;5.712;2022-09-03T07:58:59;8.13;;;2.78;;
42104;SDS011;61464;51.472;5.712;2022-09-03T08:01:25;9.40;;;2.67;;
42104;SDS011;61464;51.472;5.712;2022-09-03T08:03:53;9.60;;;1.75;;
42104;SDS011;61464;51.472;5.712;2022-09-03T08:06:20;5.78;;;2.05;;
42104;SDS011;61464;51.472;5.712;2022-09-03T08:08:53;8.43;;;2.70;;
42104;SDS011;61464;51.472;5.712;2022-09-03T08:11:25;6.75;;;2.40;;
42104;SDS011;61464;51.472;5.712;2022-09-03T08:13:54;4.85;;;1.90;;
42104;SDS011;61464;51.472;5.712;2022-09-03T08:16:29;5.28;;;1.88;;
42104;SDS011;61464;51.472;5.712;2022-09-03T08:18:58;5.82;;;2.17;;
42104;SDS011;61464;51.472;5.712;2022-09-03T08:21:24;7.72;;;1.42;;
42104;SDS011;61464;51.472;5.712;2022-09-03T08:23:52;4.72;;;1.77;;
42104;SDS011;61464;51.472;5.712;2022-09-03T08:28:54;3.10;;;1.13;;
42104;SDS011;61464;51.472;5.712;2022-09-03T08:31:21;3.58;;;1.10;;
42104;SDS011;61464;51.472;5.712;2022-09-03T08:33:50;5.75;;;1.13;;
42104;SDS011;61464;51.472;5.712;2022-09-03T08:36:19;2.05;;;1.10;;
42104;SDS011;61464;51.472;5.712;2022-09-03T08:38:47;9.80;;;1.30;;
42104;SDS011;61464;51.472;5.712;2022-09-03T08:41:37;4.97;;;1.30;;
42104;SDS011;61464;51.472;5.712;2022-09-03T08:44:29;3.05;;;1.25;;
42104;SDS011;61464;51.472;5.712;2022-09-03T08:52:59;6.30;;;1.27;;
42104;SDS011;61464;51.472;5.712;2022-09-03T08:55:35;3.58;;;1.05;;
42104;SDS011;61464;51.472;5.712;2022-09-03T08:58:18;2.80;;;1.33;;
42104;SDS011;61464;51.472;5.712;2022-09-03T09:00:56;2.38;;;1.10;;
42104;SDS011;61464;51.472;5.712;2022-09-03T09:06:32;5.10;;;1.30;;
42104;SDS011;61464;51.472;5.712;2022-09-03T09:09:29;5.88;;;1.10;;
42104;SDS011;61464;51.472;5.712;2022-09-03T09:12:40;2.38;;;1.10;;
42104;SDS011;61464;51.472;5.712;2022-09-03T09:18:55;7.10;;;1.20;;
42104;SDS011;61464;51.472;5.712;2022-09-03T09:22:11;3.92;;;1.15;;
42104;SDS011;61464;51.472;5.712;2022-09-03T09:24:48;6.20;;;1.40;;
42104;SDS011;61464;51.472;5.712;2022-09-03T09:27:19;4.65;;;1.23;;
42104;SDS011;61464;51.472;5.712;2022-09-03T09:29:47;5.18;;;1.30;;
42104;SDS011;61464;51.472;5.712;2022-09-03T09:32:16;3.53;;;1.23;;
42104;SDS011;61464;51.472;5.712;2022-09-03T09:34:44;4.53;;;1.83;;
42104;SDS011;61464;51.472;5.712;2022-09-03T09:37:11;3.97;;;1.20;;
42104;SDS011;61464;51.472;5.712;2022-09-03T09:39:40;8.93;;;1.30;;
42104;SDS011;61464;51.472;5.712;2022-09-03T09:42:19;5.03;;;1.40;;
42104;SDS011;61464;51.472;5.712;2022-09-03T09:44:46;4.22;;;1.10;;
42104;SDS011;61464;51.472;5.712;2022-09-03T09:47:29;4.30;;;1.30;;
42104;SDS011;61464;51.472;5.712;2022-09-03T09:50:02;4.20;;;1.92;;
42104;SDS011;61464;51.472;5.712;2022-09-03T09:52:39;4.28;;;1.85;;
42104;SDS011;61464;51.472;5.712;2022-09-03T09:55:09;5.38;;;2.60;;
42104;SDS011;61464;51.472;5.712;2022-09-03T09:57:42;7.95;;;2.50;;
42104;SDS011;61464;51.472;5.712;2022-09-03T10:00:09;11.20;;;4.35;;
42104;SDS011;61464;51.472;5.712;2022-09-03T10:02:38;12.40;;;5.72;;
42104;SDS011;61464;51.472;5.712;2022-09-03T10:05:20;10.20;;;2.95;;
42104;SDS011;61464;51.472;5.712;2022-09-03T10:07:55;11.77;;;2.23;;
42104;SDS011;61464;51.472;5.712;2022-09-03T10:10:23;4.10;;;1.70;;
42104;SDS011;61464;51.472;5.712;2022-09-03T10:12:52;4.30;;;1.40;;
42104;SDS011;61464;51.472;5.712;2022-09-03T10:21:24;7.65;;;2.60;;
42104;SDS011;61464;51.472;5.712;2022-09-03T10:27:03;7.25;;;3.00;;
42104;SDS011;61464;51.472;5.712;2022-09-03T10:29:36;9.50;;;3.75;;
42104;SDS011;61464;51.472;5.712;2022-09-03T10:32:18;11.00;;;4.68;;
42104;SDS011;61464;51.472;5.712;2022-09-03T10:46:53;10.23;;;4.63;;
42104;SDS011;61464;51.472;5.712;2022-09-03T11:01:26;7.03;;;2.67;;
42104;SDS011;61464;51.472;5.712;2022-09-03T11:04:42;12.35;;;5.22;;
42104;SDS011;61464;51.472;5.712;2022-09-03T11:07:40;14.65;;;7.25;;
42104;SDS011;61464;51.472;5.712;2022-09-03T11:18:18;9.77;;;5.25;;
42104;SDS011;61464;51.472;5.712;2022-09-03T11:20:58;4.75;;;1.92;;
42104;SDS011;61464;51.472;5.712;2022-09-03T11:23:30;2.75;;;1.52;;
42104;SDS011;61464;51.472;5.712;2022-09-03T11:26:03;7.13;;;2.40;;
42104;SDS011;61464;51.472;5.712;2022-09-03T11:34:31;8.35;;;1.90;;
42104;SDS011;61464;51.472;5.712;2022-09-03T11:37:26;9.57;;;2.55;;
42104;SDS011;61464;51.472;5.712;2022-09-03T11:39:55;5.32;;;2.72;;
42104;SDS011;61464;51.472;5.712;2022-09-03T11:42:41;8.93;;;2.38;;
42104;SDS011;61464;51.472;5.712;2022-09-03T11:47:53;5.50;;;1.83;;
42104;SDS011;61464;51.472;5.712;2022-09-03T11:50:30;5.47;;;2.10;;
42104;SDS011;61464;51.472;5.712;2022-09-03T11:53:08;4.65;;;2.05;;
42104;SDS011;61464;51.472;5.712;2022-09-03T11:55:54;5.70;;;2.17;;
42104;SDS011;61464;51.472;5.712;2022-09-03T11:58:34;8.15;;;2.50;;
42104;SDS011;61464;51.472;5.712;2022-09-03T12:01:11;4.45;;;2.05;;
42104;SDS011;61464;51.472;5.712;2022-09-03T12:03:48;5.93;;;2.20;;
42104;SDS011;61464;51.472;5.712;2022-09-03T12:09:16;10.95;;;3.08;;
42104;SDS011;61464;51.472;5.712;2022-09-03T12:18:02;12.43;;;4.60;;
42104;SDS011;61464;51.472;5.712;2022-09-03T12:20:46;12.23;;;4.18;;
42104;SDS011;61464;51.472;5.712;2022-09-03T12:23:30;9.48;;;3.80;;
42104;SDS011;61464;51.472;5.712;2022-09-03T12:25:58;12.20;;;4.00;;
42104;SDS011;61464;51.472;5.712;2022-09-03T12:28:30;6.57;;;2.97;;
42104;SDS011;61464;51.472;5.712;2022-09-03T12:31:05;8.98;;;3.47;;
42104;SDS011;61464;51.472;5.712;2022-09-03T12:33:47;8.13;;;3.15;;
42104;SDS011;61464;51.472;5.712;2022-09-03T12:36:16;8.95;;;3.20;;
42104;SDS011;61464;51.472;5.712;2022-09-03T12:38:42;7.00;;;3.33;;
42104;SDS011;61464;51.472;5.712;2022-09-03T12:41:21;12.32;;;3.75;;
42104;SDS011;61464;51.472;5.712;2022-09-03T12:43:58;7.90;;;3.50;;
42104;SDS011;61464;51.472;5.712;2022-09-03T12:46:25;9.35;;;3.55;;
42104;SDS011;61464;51.472;5.712;2022-09-03T12:49:02;9.60;;;3.70;;
42104;SDS011;61464;51.472;5.712;2022-09-03T12:51:41;7.50;;;3.38;;
42104;SDS011;61464;51.472;5.712;2022-09-03T12:54:09;9.15;;;3.80;;
42104;SDS011;61464;51.472;5.712;2022-09-03T12:56:48;11.38;;;3.63;;
42104;SDS011;61464;51.472;5.712;2022-09-03T12:59:23;11.38;;;4.57;;
42104;SDS011;61464;51.472;5.712;2022-09-03T13:02:00;12.02;;;3.33;;
42104;SDS011;61464;51.472;5.712;2022-09-03T13:04:36;5.82;;;2.65;;
42104;SDS011;61464;51.472;5.712;2022-09-03T13:10:04;4.88;;;2.35;;
42104;SDS011;61464;51.472;5.712;2022-09-03T13:12:45;4.25;;;2.22;;
42104;SDS011;61464;51.472;5.712;2022-09-03T13:15:16;2.67;;;1.70;;
42104;SDS011;61464;51.472;5.712;2022-09-03T13:21:21;3.25;;;1.67;;
42104;SDS011;61464;51.472;5.712;2022-09-03T13:24:14;6.43;;;1.80;;
42104;SDS011;61464;51.472;5.712;2022-09-03T13:30:21;10.13;;;2.00;;
42104;SDS011;61464;51.472;5.712;2022-09-03T13:33:18;7.97;;;1.90;;
42104;SDS011;61464;51.472;5.712;2022-09-03T13:36:08;4.28;;;2.40;;
42104;SDS011;61464;51.472;5.712;2022-09-03T13:38:52;3.58;;;1.95;;
42104;SDS011;61464;51.472;5.712;2022-09-03T13:41:37;4.10;;;1.60;;
42104;SDS011;61464;51.472;5.712;2022-09-03T13:44:20;3.45;;;1.70;;
42104;SDS011;61464;51.472;5.712;2022-09-03T13:50:56;2.05;;;1.60;;
42104;SDS011;61464;51.472;5.712;2022-09-03T13:53:41;3.08;;;1.60;;
42104;SDS011;61464;51.472;5.712;2022-09-03T13:59:59;4.22;;;1.80;;
42104;SDS011;61464;51.472;5.712;2022-09-03T14:05:50;3.40;;;1.75;;
42104;SDS011;61464;51.472;5.712;2022-09-03T14:08:33;5.38;;;1.80;;
42104;SDS011;61464;51.472;5.712;2022-09-03T14:11:57;2.53;;;1.70;;
42104;SDS011;61464;51.472;5.712;2022-09-03T14:14:40;3.05;;;1.60;;
42104;SDS011;61464;51.472;5.712;2022-09-03T14:25:34;9.75;;;2.83;;
42104;SDS011;61464;51.472;5.712;2022-09-03T14:33:38;4.00;;;1.90;;
42104;SDS011;61464;51.472;5.712;2022-09-03T14:36:48;4.38;;;1.88;;
42104;SDS011;61464;51.472;5.712;2022-09-03T14:56:56;2.65;;;1.70;;
42104;SDS011;61464;51.472;5.712;2022-09-03T14:59:52;7.13;;;2.22;;
42104;SDS011;61464;51.472;5.712;2022-09-03T15:05:52;5.75;;;2.55;;
42104;SDS011;61464;51.472;5.712;2022-09-03T15:08:53;6.20;;;2.40;;
42104;SDS011;61464;51.472;5.712;2022-09-03T15:14:57;7.63;;;2.50;;
42104;SDS011;61464;51.472;5.712;2022-09-03T15:23:03;2.47;;;2.10;;
42104;SDS011;61464;51.472;5.712;2022-09-03T15:40:49;6.32;;;1.90;;
42104;SDS011;61464;51.472;5.712;2022-09-03T15:43:25;4.68;;;1.88;;
42104;SDS011;61464;51.472;5.712;2022-09-03T15:46:02;4.68;;;1.92;;
42104;SDS011;61464;51.472;5.712;2022-09-03T15:51:40;6.40;;;1.90;;
42104;SDS011;61464;51.472;5.712;2022-09-03T15:57:46;8.95;;;2.90;;
42104;SDS011;61464;51.472;5.712;2022-09-03T16:00:32;4.63;;;2.25;;
42104;SDS011;61464;51.472;5.712;2022-09-03T16:03:09;6.70;;;2.13;;
42104;SDS011;61464;51.472;5.712;2022-09-03T16:11:29;4.78;;;2.88;;
42104;SDS011;61464;51.472;5.712;2022-09-03T16:14:39;4.50;;;2.13;;
42104;SDS011;61464;51.472;5.712;2022-09-03T16:19:51;6.50;;;3.30;;
42104;SDS011;61464;51.472;5.712;2022-09-03T16:25:33;4.18;;;1.77;;
42104;SDS011;61464;51.472;5.712;2022-09-03T16:28:20;6.85;;;2.10;;
42104;SDS011;61464;51.472;5.712;2022-09-03T16:36:56;6.50;;;2.10;;
42104;SDS011;61464;51.472;5.712;2022-09-03T16:39:49;3.92;;;1.95;;
42104;SDS011;61464;51.472;5.712;2022-09-03T16:45:35;8.65;;;2.03;;
42104;SDS011;61464;51.472;5.712;2022-09-03T17:00:26;10.30;;;2.20;;
42104;SDS011;61464;51.472;5.712;2022-09-03T17:06:15;7.38;;;2.25;;
42104;SDS011;61464;51.472;5.712;2022-09-03T17:12:40;6.03;;;1.98;;
42104;SDS011;61464;51.472;5.712;2022-09-03T17:15:48;3.58;;;2.53;;
42104;SDS011;61464;51.472;5.712;2022-09-03T17:24:56;5.97;;;2.00;;
42104;SDS011;61464;51.472;5.712;2022-09-03T17:36:51;3.05;;;1.88;;
42104;SDS011;61464;51.472;5.712;2022-09-03T17:42:34;3.03;;;1.98;;
42104;SDS011;61464;51.472;5.712;2022-09-03T17:48:44;6.05;;;2.40;;
42104;SDS011;61464;51.472;5.712;2022-09-03T17:51:22;5.28;;;2.40;;
42104;SDS011;61464;51.472;5.712;2022-09-03T17:54:19;6.05;;;2.42;;
42104;SDS011;61464;51.472;5.712;2022-09-03T18:00:01;3.65;;;2.20;;
42104;SDS011;61464;51.472;5.712;2022-09-03T18:05:07;4.28;;;2.15;;
42104;SDS011;61464;51.472;5.712;2022-09-03T18:08:17;5.32;;;2.90;;
42104;SDS011;61464;51.472;5.712;2022-09-03T18:11:10;5.55;;;2.85;;
42104;SDS011;61464;51.472;5.712;2022-09-03T18:16:29;3.50;;;2.33;;
42104;SDS011;61464;51.472;5.712;2022-09-03T18:18:59;5.57;;;2.53;;
42104;SDS011;61464;51.472;5.712;2022-09-03T18:22:15;4.03;;;2.40;;
42104;SDS011;61464;51.472;5.712;2022-09-03T18:25:00;4.45;;;2.67;;
42104;SDS011;61464;51.472;5.712;2022-09-03T18:27:47;3.88;;;2.70;;
42104;SDS011;61464;51.472;5.712;2022-09-03T18:30:37;6.95;;;2.65;;
42104;SDS011;61464;51.472;5.712;2022-09-03T18:33:25;5.78;;;2.70;;
42104;SDS011;61464;51.472;5.712;2022-09-03T18:36:10;5.32;;;2.40;;
42104;SDS011;61464;51.472;5.712;2022-09-03T18:39:08;4.13;;;2.63;;
42104;SDS011;61464;51.472;5.712;2022-09-03T18:42:30;4.43;;;3.00;;
42104;SDS011;61464;51.472;5.712;2022-09-03T18:45:48;5.20;;;3.10;;
42104;SDS011;61464;51.472;5.712;2022-09-03T18:48:41;6.15;;;3.33;;
42104;SDS011;61464;51.472;5.712;2022-09-03T18:51:39;10.45;;;4.50;;
42104;SDS011;61464;51.472;5.712;2022-09-03T18:57:50;5.15;;;3.08;;
42104;SDS011;61464;51.472;5.712;2022-09-03T19:08:01;6.22;;;3.05;;
42104;SDS011;61464;51.472;5.712;2022-09-03T19:14:24;4.88;;;3.00;;
42104;SDS011;61464;51.472;5.712;2022-09-03T19:20:35;8.65;;;3.38;;
42104;SDS011;61464;51.472;5.712;2022-09-03T19:23:24;7.55;;;3.50;;
42104;SDS011;61464;51.472;5.712;2022-09-03T19:26:17;4.05;;;3.05;;
42104;SDS011;61464;51.472;5.712;2022-09-03T19:29:45;5.63;;;3.10;;
42104;SDS011;61464;51.472;5.712;2022-09-03T19:36:09;4.35;;;3.38;;
42104;SDS011;61464;51.472;5.712;2022-09-03T19:39:24;6.82;;;3.78;;
42104;SDS011;61464;51.472;5.712;2022-09-03T19:52:49;3.85;;;3.10;;
42104;SDS011;61464;51.472;5.712;2022-09-03T19:58:41;4.63;;;3.35;;
42104;SDS011;61464;51.472;5.712;2022-09-03T20:01:39;6.22;;;3.67;;
42104;SDS011;61464;51.472;5.712;2022-09-03T20:04:33;10.10;;;3.63;;
42104;SDS011;61464;51.472;5.712;2022-09-03T20:07:23;4.63;;;3.80;;
42104;SDS011;61464;51.472;5.712;2022-09-03T20:10:09;6.70;;;3.80;;
42104;SDS011;61464;51.472;5.712;2022-09-03T20:18:37;24.92;;;11.88;;
42104;SDS011;61464;51.472;5.712;2022-09-03T20:21:22;15.25;;;7.63;;
42104;SDS011;61464;51.472;5.712;2022-09-03T20:32:46;8.45;;;5.32;;
42104;SDS011;61464;51.472;5.712;2022-09-03T20:50:53;8.45;;;3.97;;
42104;SDS011;61464;51.472;5.712;2022-09-03T21:01:52;6.68;;;4.65;;
42104;SDS011;61464;51.472;5.712;2022-09-03T21:11:06;8.18;;;4.78;;
42104;SDS011;61464;51.472;5.712;2022-09-03T21:13:46;9.07;;;4.90;;
42104;SDS011;61464;51.472;5.712;2022-09-03T21:16:53;11.85;;;5.15;;
42104;SDS011;61464;51.472;5.712;2022-09-03T21:25:06;7.20;;;5.03;;
42104;SDS011;61464;51.472;5.712;2022-09-03T21:27:39;9.95;;;5.50;;
42104;SDS011;61464;51.472;5.712;2022-09-03T21:30:13;8.35;;;5.18;;
42104;SDS011;61464;51.472;5.712;2022-09-03T21:35:32;8.27;;;5.70;;
42104;SDS011;61464;51.472;5.712;2022-09-03T21:38:07;7.07;;;5.47;;
42104;SDS011;61464;51.472;5.712;2022-09-03T21:43:53;8.70;;;6.28;;
42104;SDS011;61464;51.472;5.712;2022-09-03T21:46:40;9.88;;;6.22;;
42104;SDS011;61464;51.472;5.712;2022-09-03T21:49:23;10.38;;;6.10;;
42104;SDS011;61464;51.472;5.712;2022-09-03T21:51:56;8.23;;;5.93;;
42104;SDS011;61464;51.472;5.712;2022-09-03T21:54:32;9.35;;;5.93;;
42104;SDS011;61464;51.472;5.712;2022-09-03T22:02:17;8.13;;;5.65;;
42104;SDS011;61464;51.472;5.712;2022-09-03T22:04:50;7.03;;;5.57;;
42104;SDS011;61464;51.472;5.712;2022-09-03T22:10:50;13.68;;;5.85;;
42104;SDS011;61464;51.472;5.712;2022-09-03T22:13:49;8.85;;;6.00;;
42104;SDS011;61464;51.472;5.712;2022-09-03T22:16:31;6.32;;;5.30;;
42104;SDS011;61464;51.472;5.712;2022-09-03T22:19:20;8.75;;;5.95;;
42104;SDS011;61464;51.472;5.712;2022-09-03T22:21:50;12.93;;;6.28;;
42104;SDS011;61464;51.472;5.712;2022-09-03T22:30:33;10.90;;;6.45;;
42104;SDS011;61464;51.472;5.712;2022-09-03T22:36:13;9.90;;;6.65;;